createdAt,value
2022-08-26T00:00:21.313Z,8.98
2022-08-26T00:03:04.605Z,8.65
2022-08-26T00:05:35.883Z,8.80
2022-08-26T00:08:05.577Z,8.57
2022-08-26T00:10:33.886Z,8.05
2022-08-26T00:13:02.092Z,9.70
2022-08-26T00:15:31.907Z,9.38
2022-08-26T00:18:00.610Z,8.80
2022-08-26T00:20:31.650Z,8.80
2022-08-26T00:23:00.321Z,8.38
2022-08-26T00:25:28.824Z,9.75
2022-08-26T00:27:57.652Z,10.13
2022-08-26T00:30:29.333Z,11.63
2022-08-26T00:33:00.576Z,11.32
2022-08-26T00:35:30.789Z,12.25
2022-08-26T00:38:02.695Z,11.30
2022-08-26T00:40:35.545Z,11.85
2022-08-26T00:43:07.133Z,11.90
2022-08-26T00:45:42.135Z,10.23
2022-08-26T00:48:13.162Z,9.98
2022-08-26T00:50:49.368Z,10.20
2022-08-26T00:53:25.996Z,9.07
2022-08-26T00:56:00.340Z,10.45
2022-08-26T00:58:31.330Z,8.88
2022-08-26T01:00:59.767Z,9.27
2022-08-26T01:03:30.632Z,9.32
2022-08-26T01:06:00.082Z,9.82
2022-08-26T01:08:28.995Z,10.68
2022-08-26T01:10:58.578Z,9.65
2022-08-26T01:13:28.816Z,9.15
2022-08-26T01:15:59.070Z,9.18
2022-08-26T01:21:03.432Z,9.57
2022-08-26T01:23:35.628Z,10.05
2022-08-26T01:26:06.838Z,9.15
2022-08-26T01:28:36.314Z,9.77
2022-08-26T01:31:06.844Z,10.10
2022-08-26T01:33:42.051Z,10.35
2022-08-26T01:36:12.392Z,10.60
2022-08-26T01:38:42.556Z,11.07
2022-08-26T01:41:16.118Z,10.85
2022-08-26T01:43:49.635Z,10.68
2022-08-26T01:46:18.669Z,11.30
2022-08-26T01:48:49.464Z,10.38
2022-08-26T01:51:23.825Z,10.35
2022-08-26T01:53:53.444Z,11.02
2022-08-26T01:56:22.943Z,11.85
2022-08-26T01:58:54.013Z,11.45
2022-08-26T02:01:22.909Z,11.55
2022-08-26T02:04:00.704Z,10.77
2022-08-26T02:06:28.945Z,11.02
2022-08-26T02:09:02.653Z,10.85
2022-08-26T02:11:30.818Z,11.30
2022-08-26T02:14:02.949Z,11.15
2022-08-26T02:16:35.837Z,10.70
2022-08-26T02:19:06.043Z,9.55
2022-08-26T02:21:36.565Z,9.95
2022-08-26T02:24:14.545Z,9.40
2022-08-26T02:26:43.663Z,10.10
2022-08-26T02:29:17.751Z,9.73
2022-08-26T02:31:46.129Z,10.02
2022-08-26T02:34:16.651Z,9.88
2022-08-26T02:36:44.676Z,9.20
2022-08-26T02:39:19.548Z,8.65
2022-08-26T02:41:50.926Z,9.15
2022-08-26T02:44:19.398Z,9.48
2022-08-26T02:46:47.631Z,8.38
2022-08-26T02:49:16.992Z,8.43
2022-08-26T02:51:45.917Z,8.85
2022-08-26T02:54:15.703Z,8.98
2022-08-26T02:56:44.461Z,8.85
2022-08-26T02:59:13.633Z,10.05
2022-08-26T03:01:42.667Z,9.50
2022-08-26T03:04:12.931Z,10.13
2022-08-26T03:09:14.028Z,8.50
2022-08-26T03:11:48.582Z,8.48
2022-08-26T03:14:17.408Z,9.45
2022-08-26T03:16:48.530Z,9.15
2022-08-26T03:19:17.614Z,9.57
2022-08-26T03:21:47.501Z,9.38
2022-08-26T03:24:17.708Z,10.00
2022-08-26T03:26:52.088Z,9.35
2022-08-26T03:29:40.376Z,8.32
2022-08-26T03:32:09.039Z,9.38
2022-08-26T03:34:37.311Z,9.48
2022-08-26T03:37:07.132Z,8.40
2022-08-26T03:39:37.030Z,9.27
2022-08-26T03:42:06.850Z,9.68
2022-08-26T03:44:37.403Z,9.52
2022-08-26T03:47:10.589Z,9.57
2022-08-26T03:49:38.975Z,8.55
2022-08-26T03:52:07.443Z,8.43
2022-08-26T03:54:36.135Z,9.10
2022-08-26T03:57:04.353Z,9.07
2022-08-26T03:59:33.826Z,8.35
2022-08-26T04:02:03.717Z,8.45
2022-08-26T04:04:39.951Z,8.95
2022-08-26T04:07:08.725Z,8.55
2022-08-26T04:09:37.058Z,8.43
2022-08-26T04:12:06.536Z,8.00
2022-08-26T04:14:37.748Z,7.70
2022-08-26T04:17:08.534Z,7.45
2022-08-26T04:19:36.838Z,7.97
2022-08-26T04:22:04.879Z,7.82
2022-08-26T04:24:33.176Z,6.68
2022-08-26T04:27:03.485Z,6.47
2022-08-26T04:29:31.767Z,7.20
2022-08-26T04:32:01.301Z,6.57
2022-08-26T04:34:33.092Z,6.40
2022-08-26T04:37:01.987Z,6.13
2022-08-26T04:39:30.783Z,5.97
2022-08-26T04:42:00.130Z,6.13
2022-08-26T04:44:31.134Z,5.75
2022-08-26T04:46:59.706Z,5.25
2022-08-26T04:49:27.943Z,6.43
2022-08-26T04:52:05.756Z,6.32
2022-08-26T04:54:34.004Z,5.47
2022-08-26T04:57:02.619Z,5.53
2022-08-26T04:59:31.122Z,6.07
2022-08-26T05:01:59.747Z,5.97
2022-08-26T05:04:28.217Z,5.43
2022-08-26T05:07:02.577Z,5.45
2022-08-26T05:09:32.649Z,6.28
2022-08-26T05:12:01.068Z,5.90
2022-08-26T05:14:29.283Z,5.90
2022-08-26T05:16:57.497Z,5.90
2022-08-26T05:19:27.969Z,6.00
2022-08-26T05:21:56.226Z,6.20
2022-08-26T05:24:24.622Z,5.95
2022-08-26T05:26:54.482Z,6.03
2022-08-26T05:29:25.130Z,6.43
2022-08-26T05:31:54.080Z,6.18
2022-08-26T05:34:25.763Z,6.00
2022-08-26T05:36:58.463Z,5.90
2022-08-26T05:39:26.588Z,5.00
2022-08-26T05:41:56.117Z,5.88
2022-08-26T05:44:24.657Z,5.85
2022-08-26T05:46:53.050Z,5.35
2022-08-26T05:49:22.535Z,5.55
2022-08-26T05:51:54.961Z,5.15
2022-08-26T05:54:23.029Z,5.50
2022-08-26T05:56:51.990Z,4.97
2022-08-26T05:59:24.323Z,5.18
2022-08-26T06:01:53.406Z,5.55
2022-08-26T06:04:23.154Z,5.20
2022-08-26T06:06:54.966Z,5.03
2022-08-26T06:09:23.459Z,5.20
2022-08-26T06:11:52.246Z,5.05
2022-08-26T06:14:23.264Z,5.90
2022-08-26T06:16:51.673Z,4.50
2022-08-26T06:19:21.689Z,6.00
2022-08-26T06:21:54.859Z,4.10
2022-08-26T06:24:41.232Z,4.25
2022-08-26T06:27:13.761Z,4.85
2022-08-26T06:29:43.683Z,4.43
2022-08-26T06:32:11.824Z,4.63
2022-08-26T06:34:40.046Z,4.65
2022-08-26T06:37:09.046Z,3.88
2022-08-26T06:39:41.171Z,4.45
2022-08-26T06:42:10.922Z,4.10
2022-08-26T06:44:41.113Z,4.38
2022-08-26T06:47:10.792Z,4.65
2022-08-26T06:49:39.837Z,5.30
2022-08-26T06:52:08.013Z,4.80
2022-08-26T06:54:37.158Z,4.57
2022-08-26T06:57:07.504Z,5.15
2022-08-26T06:59:35.597Z,4.75
2022-08-26T07:02:04.094Z,4.38
2022-08-26T07:04:35.891Z,4.95
2022-08-26T07:07:04.079Z,4.45
2022-08-26T07:09:33.277Z,4.45
2022-08-26T07:12:02.554Z,4.80
2022-08-26T07:14:31.819Z,4.38
2022-08-26T07:17:01.540Z,4.40
2022-08-26T07:19:31.616Z,4.40
2022-08-26T07:22:04.226Z,4.32
2022-08-26T07:24:33.553Z,4.45
2022-08-26T07:27:05.590Z,4.50
2022-08-26T07:29:34.664Z,4.50
2022-08-26T07:32:03.966Z,4.28
2022-08-26T07:34:33.450Z,4.47
2022-08-26T07:37:03.663Z,4.95
2022-08-26T07:39:32.861Z,4.40
2022-08-26T07:42:01.669Z,4.50
2022-08-26T07:44:36.361Z,4.18
2022-08-26T07:47:24.556Z,4.63
2022-08-26T07:49:53.016Z,4.13
2022-08-26T07:52:26.633Z,4.57
2022-08-26T07:54:56.318Z,4.30
2022-08-26T07:57:24.806Z,4.35
2022-08-26T07:59:54.021Z,4.53
2022-08-26T08:02:24.668Z,4.60
2022-08-26T08:04:53.412Z,3.90
2022-08-26T08:07:38.550Z,4.30
2022-08-26T08:10:13.709Z,5.03
2022-08-26T08:15:13.823Z,4.00
2022-08-26T08:17:43.489Z,4.40
2022-08-26T08:20:12.476Z,4.72
2022-08-26T08:22:42.547Z,4.03
2022-08-26T08:25:12.451Z,3.97
2022-08-26T08:27:42.222Z,4.53
2022-08-26T08:30:13.795Z,4.55
2022-08-26T08:32:43.695Z,4.38
2022-08-26T08:35:13.479Z,4.70
2022-08-26T08:37:43.772Z,4.20
2022-08-26T08:42:46.902Z,3.97
2022-08-26T08:45:19.213Z,4.07
2022-08-26T08:47:50.496Z,3.88
2022-08-26T08:50:23.431Z,4.35
2022-08-26T08:53:00.464Z,3.88
2022-08-26T08:55:37.762Z,4.07
2022-08-26T08:58:09.243Z,3.97
2022-08-26T09:00:45.007Z,3.90
2022-08-26T09:03:24.656Z,4.18
2022-08-26T09:05:53.726Z,4.32
2022-08-26T09:08:29.747Z,4.22
2022-08-26T09:11:00.511Z,4.00
2022-08-26T09:13:29.297Z,4.80
2022-08-26T09:16:08.382Z,4.20
2022-08-26T09:18:49.537Z,3.70
2022-08-26T09:21:20.750Z,3.95
2022-08-26T09:23:54.133Z,4.03
2022-08-26T09:26:29.080Z,4.03
2022-08-26T09:29:00.156Z,3.78
2022-08-26T09:31:30.783Z,3.75
2022-08-26T09:34:17.897Z,3.65
2022-08-26T09:36:49.702Z,3.85
2022-08-26T09:39:31.932Z,4.38
2022-08-26T09:42:22.452Z,3.67
2022-08-26T09:44:56.593Z,3.60
2022-08-26T09:47:30.286Z,3.65
2022-08-26T09:50:04.835Z,3.63
2022-08-26T09:52:38.485Z,3.80
2022-08-26T09:55:14.805Z,3.42
2022-08-26T09:57:49.671Z,3.83
2022-08-26T10:00:42.026Z,3.20
2022-08-26T10:03:12.485Z,3.20
2022-08-26T10:05:48.606Z,3.40
2022-08-26T10:08:25.676Z,3.47
2022-08-26T10:10:57.665Z,2.88
2022-08-26T10:13:32.967Z,3.42
2022-08-26T10:16:10.634Z,3.75
2022-08-26T10:18:42.217Z,3.50
2022-08-26T10:21:13.110Z,3.20
2022-08-26T10:23:43.439Z,2.80
2022-08-26T10:26:17.944Z,2.80
2022-08-26T10:28:50.650Z,3.40
2022-08-26T10:31:27.848Z,3.20
2022-08-26T10:33:59.997Z,3.25
2022-08-26T10:37:14.525Z,2.53
2022-08-26T10:39:43.208Z,2.88
2022-08-26T10:42:18.726Z,3.08
2022-08-26T10:44:47.292Z,3.00
2022-08-26T10:47:19.639Z,3.63
2022-08-26T10:49:48.826Z,2.55
2022-08-26T10:52:23.486Z,2.33
2022-08-26T10:55:03.161Z,2.50
2022-08-26T10:57:41.425Z,2.67
2022-08-26T11:00:27.698Z,2.35
2022-08-26T11:03:00.603Z,2.85
2022-08-26T11:05:29.382Z,2.90
2022-08-26T11:08:29.551Z,3.13
2022-08-26T11:10:59.938Z,2.30
2022-08-26T11:14:06.109Z,3.25
2022-08-26T11:16:42.886Z,2.42
2022-08-26T11:19:14.080Z,2.55
2022-08-26T11:22:06.232Z,2.40
2022-08-26T11:25:01.644Z,2.63
2022-08-26T11:28:04.111Z,2.67
2022-08-26T11:30:47.696Z,2.08
2022-08-26T11:33:58.194Z,2.95
2022-08-26T11:37:04.138Z,2.55
2022-08-26T11:39:36.733Z,2.40
2022-08-26T11:42:20.102Z,2.50
2022-08-26T11:44:49.853Z,2.80
2022-08-26T11:47:28.709Z,2.67
2022-08-26T11:50:15.810Z,2.70
2022-08-26T11:52:52.883Z,2.22
2022-08-26T11:55:23.255Z,2.50
2022-08-26T12:00:25.114Z,2.45
2022-08-26T12:02:55.739Z,2.33
2022-08-26T12:05:30.828Z,2.50
2022-08-26T12:08:04.268Z,2.55
2022-08-26T12:10:35.644Z,2.40
2022-08-26T12:13:05.472Z,2.58
2022-08-26T12:15:35.796Z,2.23
2022-08-26T12:18:28.899Z,2.88
2022-08-26T12:21:00.873Z,2.38
2022-08-26T12:23:41.912Z,2.35
2022-08-26T12:26:15.543Z,2.35
2022-08-26T12:28:45.675Z,2.70
2022-08-26T12:31:22.653Z,2.65
2022-08-26T12:33:53.236Z,2.45
2022-08-26T12:36:25.566Z,2.38
2022-08-26T12:38:58.004Z,2.30
2022-08-26T12:41:39.898Z,2.50
2022-08-26T12:44:08.413Z,1.85
2022-08-26T12:46:36.493Z,2.47
2022-08-26T12:49:06.172Z,2.47
2022-08-26T12:51:42.046Z,2.33
2022-08-26T12:54:16.059Z,2.08
2022-08-26T12:56:44.567Z,2.13
2022-08-26T12:59:23.419Z,2.13
2022-08-26T13:01:52.692Z,1.92
2022-08-26T13:04:37.583Z,2.30
2022-08-26T13:07:23.229Z,2.50
2022-08-26T13:09:53.253Z,2.80
2022-08-26T13:12:27.371Z,2.63
2022-08-26T13:14:56.190Z,2.47
2022-08-26T13:17:24.545Z,2.65
2022-08-26T13:19:54.411Z,2.40
2022-08-26T13:22:25.090Z,3.05
2022-08-26T13:27:26.411Z,2.97
2022-08-26T13:29:55.721Z,2.60
2022-08-26T13:32:27.515Z,2.45
2022-08-26T13:34:58.879Z,2.70
2022-08-26T13:37:34.397Z,2.72
2022-08-26T13:40:04.984Z,2.90
2022-08-26T13:42:33.181Z,2.73
2022-08-26T13:45:03.033Z,2.63
2022-08-26T13:47:31.619Z,2.80
2022-08-26T13:50:01.118Z,2.95
2022-08-26T13:52:30.661Z,2.88
2022-08-26T13:55:00.459Z,3.28
2022-08-26T13:57:30.398Z,3.05
2022-08-26T14:00:00.150Z,3.00
2022-08-26T14:02:29.222Z,3.03
2022-08-26T14:04:57.404Z,3.08
2022-08-26T14:07:26.943Z,3.10
2022-08-26T14:09:55.325Z,3.05
2022-08-26T14:12:23.653Z,2.88
2022-08-26T14:14:52.136Z,3.33
2022-08-26T14:17:22.202Z,3.08
2022-08-26T14:19:51.421Z,2.92
2022-08-26T14:22:22.420Z,3.00
2022-08-26T14:24:52.158Z,3.15
2022-08-26T14:27:20.367Z,3.10
2022-08-26T14:29:48.555Z,2.85
2022-08-26T14:32:23.226Z,3.03
2022-08-26T14:34:52.115Z,3.28
2022-08-26T14:37:20.839Z,2.80
2022-08-26T14:39:49.191Z,2.67
2022-08-26T14:42:22.532Z,2.85
2022-08-26T14:44:54.505Z,2.75
2022-08-26T14:47:22.607Z,2.85
2022-08-26T14:49:50.744Z,2.50
2022-08-26T14:52:19.412Z,2.50
2022-08-26T14:54:46.572Z,2.45
2022-08-26T14:57:15.134Z,3.08
2022-08-26T14:59:49.665Z,2.70
2022-08-26T15:02:32.594Z,2.70
2022-08-26T15:05:02.555Z,2.78
2022-08-26T15:07:30.952Z,2.42
2022-08-26T15:09:59.179Z,2.80
2022-08-26T15:12:28.166Z,3.00
2022-08-26T15:14:57.684Z,2.42
2022-08-26T15:17:26.309Z,2.63
2022-08-26T15:19:54.626Z,3.15
2022-08-26T15:22:22.860Z,2.65
2022-08-26T15:24:51.831Z,2.42
2022-08-26T15:27:22.183Z,2.70
2022-08-26T15:29:50.279Z,2.17
2022-08-26T15:32:19.898Z,2.72
2022-08-26T15:34:49.994Z,2.60
2022-08-26T15:37:18.349Z,2.65
2022-08-26T15:39:46.626Z,2.00
2022-08-26T15:42:15.118Z,2.22
2022-08-26T15:44:44.805Z,2.75
2022-08-26T15:47:13.805Z,2.90
2022-08-26T15:49:43.716Z,2.80
2022-08-26T15:52:11.896Z,2.85
2022-08-26T15:54:41.003Z,2.70
2022-08-26T15:57:11.463Z,2.70
2022-08-26T15:59:40.780Z,2.78
2022-08-26T16:02:09.227Z,2.80
2022-08-26T16:04:37.618Z,2.67
2022-08-26T16:07:07.176Z,2.60
2022-08-26T16:09:35.262Z,2.58
2022-08-26T16:12:04.059Z,2.60
2022-08-26T16:14:32.341Z,2.97
2022-08-26T16:17:00.522Z,2.38
2022-08-26T16:19:28.866Z,2.47
2022-08-26T16:21:57.158Z,2.72
2022-08-26T16:24:30.384Z,2.80
2022-08-26T16:26:59.145Z,2.70
2022-08-26T16:29:27.626Z,2.58
2022-08-26T16:31:55.873Z,2.95
2022-08-26T16:34:24.334Z,2.70
2022-08-26T16:36:52.546Z,2.60
2022-08-26T16:39:20.750Z,3.22
2022-08-26T16:41:50.505Z,2.75
2022-08-26T16:44:19.235Z,2.87
2022-08-26T16:46:47.368Z,2.72
2022-08-26T16:49:16.166Z,2.63
2022-08-26T16:51:44.489Z,2.78
2022-08-26T16:54:12.815Z,2.80
2022-08-26T16:56:41.487Z,2.50
2022-08-26T16:59:12.254Z,2.83
2022-08-26T17:01:40.514Z,2.70
2022-08-26T17:04:09.181Z,2.65
2022-08-26T17:06:38.303Z,3.30
2022-08-26T17:09:06.936Z,2.95
2022-08-26T17:11:35.466Z,3.35
2022-08-26T17:14:03.624Z,3.33
2022-08-26T17:16:33.555Z,2.97
2022-08-26T17:19:02.622Z,3.50
2022-08-26T17:21:30.918Z,3.47
2022-08-26T17:23:59.428Z,3.42
2022-08-26T17:26:27.866Z,3.30
2022-08-26T17:28:56.148Z,3.58
2022-08-26T17:31:24.831Z,3.40
2022-08-26T17:33:55.632Z,3.67
2022-08-26T17:36:28.056Z,3.40
2022-08-26T17:38:57.988Z,3.67
2022-08-26T17:41:26.259Z,3.65
2022-08-26T17:43:54.671Z,3.75
2022-08-26T17:46:23.364Z,3.75
2022-08-26T17:48:51.523Z,3.85
2022-08-26T17:51:21.078Z,4.30
2022-08-26T17:53:49.800Z,4.30
2022-08-26T17:56:23.970Z,4.18
2022-08-26T17:58:52.710Z,4.60
2022-08-26T18:01:21.318Z,4.68
2022-08-26T18:03:50.035Z,4.63
2022-08-26T18:06:18.393Z,5.20
2022-08-26T18:08:48.337Z,5.72
2022-08-26T18:11:18.293Z,5.85
2022-08-26T18:13:47.763Z,5.72
2022-08-26T18:16:17.865Z,5.40
2022-08-26T18:18:46.588Z,5.38
2022-08-26T18:21:17.117Z,5.13
2022-08-26T18:23:47.875Z,4.93
2022-08-26T18:26:20.685Z,4.80
2022-08-26T18:28:48.732Z,4.88
2022-08-26T18:31:16.942Z,4.70
2022-08-26T18:33:45.745Z,5.03
2022-08-26T18:36:19.624Z,4.72
2022-08-26T18:38:50.750Z,4.68
2022-08-26T18:41:20.779Z,4.88
2022-08-26T18:43:50.616Z,4.20
2022-08-26T18:46:22.086Z,4.82
2022-08-26T18:48:50.967Z,4.32
2022-08-26T18:51:20.994Z,4.15
2022-08-26T18:53:51.114Z,4.50
2022-08-26T18:56:19.906Z,4.43
2022-08-26T18:58:48.196Z,4.22
2022-08-26T19:01:17.328Z,4.55
2022-08-26T19:03:46.724Z,4.38
2022-08-26T19:06:16.491Z,4.72
2022-08-26T19:08:44.955Z,4.35
2022-08-26T19:11:14.922Z,4.57
2022-08-26T19:13:43.691Z,5.10
2022-08-26T19:16:16.660Z,4.55
2022-08-26T19:18:45.310Z,4.80
2022-08-26T19:21:13.973Z,4.78
2022-08-26T19:23:42.260Z,4.88
2022-08-26T19:26:11.343Z,4.68
2022-08-26T19:28:41.341Z,4.93
2022-08-26T19:31:10.989Z,5.22
2022-08-26T19:33:39.629Z,5.00
2022-08-26T19:36:12.648Z,5.35
2022-08-26T19:38:43.023Z,4.50
2022-08-26T19:41:13.213Z,5.15
2022-08-26T19:43:43.107Z,5.45
2022-08-26T19:46:17.461Z,4.82
2022-08-26T19:51:15.787Z,5.32
2022-08-26T19:53:44.751Z,5.00
2022-08-26T19:56:13.484Z,4.80
2022-08-26T19:58:43.530Z,4.82
2022-08-26T20:01:12.533Z,4.45
2022-08-26T20:03:41.432Z,4.43
2022-08-26T20:06:11.041Z,4.90
2022-08-26T20:08:40.355Z,5.15
2022-08-26T20:11:12.006Z,5.45
2022-08-26T20:13:41.034Z,5.32
2022-08-26T20:16:12.247Z,5.78
2022-08-26T20:18:58.889Z,6.15
2022-08-26T20:21:27.498Z,5.70
2022-08-26T20:23:58.425Z,5.63
2022-08-26T20:26:28.030Z,5.75
2022-08-26T20:28:56.619Z,5.30
2022-08-26T20:31:26.616Z,6.30
2022-08-26T20:33:55.776Z,7.20
2022-08-26T20:36:26.931Z,6.53
2022-08-26T20:38:55.557Z,6.13
2022-08-26T20:41:25.490Z,6.35
2022-08-26T20:43:53.946Z,6.68
2022-08-26T20:46:24.852Z,6.97
2022-08-26T20:48:55.610Z,6.75
2022-08-26T20:51:28.974Z,6.53
2022-08-26T20:53:57.396Z,5.97
2022-08-26T20:56:25.678Z,6.85
2022-08-26T20:58:55.860Z,7.22
2022-08-26T21:01:26.516Z,6.45
2022-08-26T21:03:57.382Z,5.90
2022-08-26T21:06:25.846Z,7.05
2022-08-26T21:08:54.926Z,6.43
2022-08-26T21:11:23.282Z,6.30
2022-08-26T21:14:15.998Z,6.97
2022-08-26T21:16:41.262Z,6.75
2022-08-26T21:19:12.970Z,6.82
2022-08-26T21:21:42.001Z,7.05
2022-08-26T21:24:10.776Z,7.22
2022-08-26T21:26:39.066Z,6.90
2022-08-26T21:29:09.925Z,7.25
2022-08-26T21:31:43.523Z,6.60
2022-08-26T21:34:17.556Z,6.72
2022-08-26T21:36:46.255Z,6.18
2022-08-26T21:39:15.009Z,6.22
2022-08-26T21:41:44.409Z,6.25
2022-08-26T21:44:13.696Z,6.40
2022-08-26T21:46:41.987Z,6.47
2022-08-26T21:49:13.208Z,6.47
2022-08-26T21:51:44.280Z,6.80
2022-08-26T21:56:44.366Z,6.25
2022-08-26T21:59:13.046Z,6.90
2022-08-26T22:01:41.687Z,6.32
2022-08-26T22:04:10.746Z,6.85
2022-08-26T22:06:43.572Z,7.13
2022-08-26T22:09:12.806Z,6.50
2022-08-26T22:11:41.127Z,7.25
2022-08-26T22:14:09.698Z,7.32
2022-08-26T22:16:38.462Z,7.75
2022-08-26T22:19:06.775Z,7.18
2022-08-26T22:21:35.846Z,8.02
2022-08-26T22:24:08.644Z,7.93
2022-08-26T22:26:36.872Z,7.63
2022-08-26T22:29:06.457Z,7.97
2022-08-26T22:31:37.978Z,8.60
2022-08-26T22:34:08.732Z,8.05
2022-08-26T22:36:43.191Z,7.90
2022-08-26T22:39:14.643Z,7.53
2022-08-26T22:41:43.379Z,7.53
2022-08-26T22:44:12.117Z,6.97
2022-08-26T22:46:41.484Z,8.10
2022-08-26T22:49:10.189Z,7.78
2022-08-26T22:51:38.582Z,7.45
2022-08-26T22:54:07.785Z,7.75
2022-08-26T22:56:38.050Z,7.88
2022-08-26T22:59:06.877Z,8.27
2022-08-26T23:01:37.387Z,7.68
2022-08-26T23:04:07.433Z,7.25
2022-08-26T23:06:36.964Z,7.85
2022-08-26T23:09:06.199Z,7.30
2022-08-26T23:11:34.439Z,6.97
2022-08-26T23:14:05.089Z,7.00
2022-08-26T23:16:40.928Z,7.05
2022-08-26T23:19:09.464Z,7.20
2022-08-26T23:21:37.959Z,6.70
2022-08-26T23:24:06.835Z,6.00
2022-08-26T23:26:35.242Z,5.93
2022-08-26T23:29:06.424Z,7.15
2022-08-26T23:31:34.856Z,6.03
2022-08-26T23:34:20.500Z,6.38
2022-08-26T23:36:48.998Z,6.22
2022-08-26T23:39:17.333Z,6.95
2022-08-26T23:41:45.857Z,6.28
2022-08-26T23:44:15.628Z,6.63
2022-08-26T23:46:44.382Z,6.30
2022-08-26T23:49:12.535Z,5.75
2022-08-26T23:51:58.651Z,6.10
2022-08-26T23:54:26.807Z,6.60
2022-08-26T23:56:55.246Z,6.95
2022-08-26T23:59:24.846Z,6.38
